Time;durP1;ratioP1;P1;durP2;ratioP2;P2;SDS_P1;SDS_P2;PMS_P1;PMS_P2;Temp;Humidity;BMP_temperature;BMP_pressure;BME280_temperature;BME280_humidity;BME280_pressure;Samples;Min_cycle;Max_cycle;Signal;HPM_P1;HPM_P2
2021/10/24 00:01:48;;;;;;;20.70;11.43;;;23.90;39.20;;;;;;6137500;28;84437;-67
2021/10/24 00:04:48;;;;;;;19.10;10.20;;;23.90;39.00;;;;;;6154813;28;83833;-68
2021/10/24 00:07:49;;;;;;;20.30;10.23;;;23.90;39.10;;;;;;6156400;28;83005;-67
2021/10/24 00:10:49;;;;;;;20.85;10.32;;;23.90;39.20;;;;;;6151408;28;83105;-67
2021/10/24 00:13:50;;;;;;;20.33;9.75;;;23.90;39.20;;;;;;6158024;28;83220;-67
2021/10/24 00:16:50;;;;;;;19.00;10.23;;;23.90;39.20;;;;;;6163252;28;83764;-67
2021/10/24 00:19:51;;;;;;;21.23;10.50;;;23.90;39.30;;;;;;6158661;28;83005;-68
2021/10/24 00:22:51;;;;;;;18.83;9.77;;;23.90;39.30;;;;;;6159140;28;83205;-67
2021/10/24 00:25:52;;;;;;;17.33;9.82;;;23.90;39.40;;;;;;6161887;28;83356;-68
2021/10/24 00:28:53;;;;;;;21.85;11.18;;;23.90;39.40;;;;;;6163235;28;80784;-68
2021/10/24 00:31:53;;;;;;;21.33;10.40;;;23.90;39.40;;;;;;6141315;28;82963;-67
2021/10/24 00:34:54;;;;;;;20.15;11.10;;;23.90;39.40;;;;;;6164388;28;83170;-67
2021/10/24 00:37:54;;;;;;;19.50;9.98;;;23.90;39.50;;;;;;6159343;28;82886;-67
2021/10/24 00:40:55;;;;;;;17.63;9.60;;;23.90;39.60;;;;;;6159038;28;82932;-67
2021/10/24 00:43:55;;;;;;;18.15;9.32;;;23.90;39.90;;;;;;6163576;28;83444;-67
2021/10/24 00:46:56;;;;;;;19.92;10.25;;;23.90;39.60;;;;;;6161502;28;80721;-68
2021/10/24 00:49:57;;;;;;;20.55;9.43;;;23.90;39.70;;;;;;6140090;28;83303;-68
2021/10/24 00:52:57;;;;;;;19.95;10.57;;;23.90;39.60;;;;;;6161758;28;81956;-67
2021/10/24 00:55:58;;;;;;;17.75;9.07;;;23.90;39.60;;;;;;6159842;28;84055;-67
2021/10/24 00:58:58;;;;;;;17.85;9.30;;;23.90;39.60;;;;;;6148319;28;83003;-68
2021/10/24 01:01:59;;;;;;;21.80;10.05;;;23.90;39.60;;;;;;6143409;28;83540;-68
2021/10/24 01:05:00;;;;;;;21.52;10.13;;;23.90;39.60;;;;;;6142904;28;83974;-68
2021/10/24 01:08:00;;;;;;;19.52;10.40;;;23.90;39.80;;;;;;6141012;28;84043;-68
2021/10/24 01:11:01;;;;;;;21.95;10.20;;;23.80;39.60;;;;;;6157580;28;83223;-67
2021/10/24 01:14:03;;;;;;;20.67;9.68;;;23.80;39.60;;;;;;6146795;28;85509;-68
2021/10/24 01:17:03;;;;;;;18.73;9.85;;;23.80;39.70;;;;;;6143327;28;85326;-68
2021/10/24 01:20:04;;;;;;;19.35;9.55;;;23.80;39.60;;;;;;6143069;28;81847;-67
2021/10/24 01:23:04;;;;;;;16.63;9.25;;;23.80;39.70;;;;;;6142830;28;81566;-67
2021/10/24 01:26:05;;;;;;;19.58;9.73;;;23.80;39.70;;;;;;6158617;28;81578;-67
2021/10/24 01:29:05;;;;;;;19.08;10.10;;;23.80;39.70;;;;;;6161248;28;80767;-67
2021/10/24 01:32:06;;;;;;;19.30;10.55;;;23.80;39.80;;;;;;6140055;28;83347;-67
2021/10/24 01:35:07;;;;;;;18.08;9.57;;;23.80;40.40;;;;;;6117529;28;84879;-67
2021/10/24 01:38:08;;;;;;;18.15;9.07;;;23.80;39.80;;;;;;6140958;28;84864;-68
2021/10/24 01:41:09;;;;;;;19.25;9.07;;;23.80;40.40;;;;;;6143225;28;82451;-67
2021/10/24 01:44:09;;;;;;;19.27;9.90;;;23.80;39.80;;;;;;6143135;28;83736;-67
2021/10/24 01:47:13;;;;;;;21.73;10.55;;;23.70;39.70;;;;;;6143839;28;83596;-67
2021/10/24 01:50:13;;;;;;;18.60;10.05;;;23.80;39.80;;;;;;6139581;28;83544;-66
2021/10/24 01:53:14;;;;;;;19.73;10.63;;;23.80;39.90;;;;;;6157768;28;83028;-67
2021/10/24 01:56:14;;;;;;;16.63;9.23;;;23.80;39.80;;;;;;6139939;28;85855;-70
2021/10/24 01:59:15;;;;;;;18.88;9.25;;;23.80;39.90;;;;;;6144369;28;85725;-70
2021/10/24 02:02:34;;;;;;;19.88;9.73;;;23.80;40.30;;;;;;6157233;28;80979;-69
2021/10/24 02:05:56;;;;;;;18.92;9.52;;;23.80;40.20;;;;;;6141994;28;80577;-68
2021/10/24 02:08:57;;;;;;;22.75;9.63;;;23.80;40.50;;;;;;6144836;28;83897;-68
2021/10/24 02:11:58;;;;;;;21.80;10.00;;;23.80;40.70;;;;;;6146494;28;83386;-67
2021/10/24 02:14:59;;;;;;;15.82;9.20;;;23.80;40.40;;;;;;6138332;28;83666;-67
2021/10/24 02:18:00;;;;;;;21.75;9.60;;;23.80;40.10;;;;;;6141482;28;85326;-68
2021/10/24 02:21:03;;;;;;;17.30;9.02;;;23.80;40.00;;;;;;6142656;28;81326;-67
2021/10/24 02:24:03;;;;;;;18.33;10.38;;;23.80;40.30;;;;;;6143440;28;83339;-67
2021/10/24 02:27:04;;;;;;;19.70;10.43;;;23.80;40.50;;;;;;6139801;28;83129;-69
2021/10/24 02:30:06;;;;;;;20.05;10.20;;;23.80;39.50;;;;;;6138212;28;84434;-68
2021/10/24 02:33:08;;;;;;;21.52;10.35;;;23.90;39.30;;;;;;6140270;28;84747;-67
2021/10/24 02:36:26;;;;;;;20.38;10.40;;;23.90;39.00;;;;;;6137983;28;84464;-67
2021/10/24 02:39:34;;;;;;;19.50;10.20;;;23.90;39.00;;;;;;6138285;28;85324;-67
2021/10/24 02:42:35;;;;;;;25.90;10.90;;;23.90;38.80;;;;;;6157523;28;83635;-67
2021/10/24 02:45:36;;;;;;;20.42;10.18;;;23.90;38.70;;;;;;6139567;28;85612;-67
2021/10/24 02:48:37;;;;;;;20.05;10.35;;;23.90;38.80;;;;;;6137660;28;85722;-68
2021/10/24 02:51:37;;;;;;;17.45;9.25;;;24.00;38.60;;;;;;6139607;28;85692;-68
2021/10/24 02:54:38;;;;;;;22.95;9.88;;;24.00;38.50;;;;;;6140537;28;85522;-68
2021/10/24 02:57:42;;;;;;;19.27;10.60;;;24.00;38.60;;;;;;6142477;28;82551;-67
2021/10/24 03:00:43;;;;;;;21.25;9.57;;;24.00;38.40;;;;;;6150642;28;83277;-68
2021/10/24 03:03:43;;;;;;;18.13;10.02;;;24.00;38.40;;;;;;6144654;28;85828;-67
2021/10/24 03:06:45;;;;;;;19.45;10.55;;;24.10;38.40;;;;;;6138759;28;83085;-68
2021/10/24 03:09:45;;;;;;;19.20;10.13;;;24.10;38.50;;;;;;6140896;28;85754;-68
2021/10/24 03:12:46;;;;;;;19.80;9.43;;;24.10;38.40;;;;;;6140183;28;85720;-68
2021/10/24 03:15:49;;;;;;;17.83;9.32;;;24.10;38.40;;;;;;6144146;28;84207;-67
2021/10/24 03:18:50;;;;;;;18.60;9.52;;;24.10;38.50;;;;;;6144226;28;83508;-68
2021/10/24 03:21:51;;;;;;;18.17;9.20;;;24.10;38.40;;;;;;6142960;28;80715;-68
2021/10/24 03:24:51;;;;;;;15.88;9.18;;;24.10;38.60;;;;;;6126763;28;83172;-68
2021/10/24 03:27:52;;;;;;;17.67;9.65;;;24.10;38.20;;;;;;6140166;28;82041;-67
2021/10/24 03:30:55;;;;;;;21.00;10.48;;;24.10;38.30;;;;;;6158182;28;80356;-68
2021/10/24 03:33:56;;;;;;;18.35;9.13;;;24.10;38.20;;;;;;6137704;28;82839;-66
2021/10/24 03:36:58;;;;;;;17.90;8.90;;;24.10;38.10;;;;;;6141747;28;84229;-67
2021/10/24 03:39:59;;;;;;;17.92;9.45;;;24.20;38.00;;;;;;6141323;28;81846;-67
2021/10/24 03:42:59;;;;;;;18.75;9.90;;;24.20;38.10;;;;;;6139733;28;83584;-67
2021/10/24 03:46:00;;;;;;;16.83;9.27;;;24.20;38.10;;;;;;6158565;28;80536;-67
2021/10/24 03:49:00;;;;;;;19.77;9.45;;;24.20;37.90;;;;;;6157808;28;82229;-65
2021/10/24 03:52:02;;;;;;;17.55;8.68;;;24.20;37.90;;;;;;6139255;28;81198;-67
2021/10/24 03:55:09;;;;;;;19.25;9.70;;;24.20;37.60;;;;;;6139557;28;82185;-67
2021/10/24 03:58:10;;;;;;;19.65;9.25;;;24.20;37.80;;;;;;6140013;28;82378;-67
2021/10/24 04:01:10;;;;;;;18.15;8.75;;;24.20;37.70;;;;;;6143269;28;81607;-67
2021/10/24 04:04:11;;;;;;;18.58;9.25;;;24.30;37.70;;;;;;6139419;28;83882;-67
2021/10/24 04:07:13;;;;;;;35.85;15.10;;;24.30;37.80;;;;;;6140649;28;81640;-68
2021/10/24 04:10:15;;;;;;;700.42;275.42;;;24.30;37.80;;;;;;6136465;28;83174;-67
2021/10/24 04:13:16;;;;;;;426.20;142.65;;;24.30;38.30;;;;;;6118810;28;85969;-67
2021/10/24 04:16:17;;;;;;;374.70;125.45;;;24.30;38.30;;;;;;6128320;28;88159;-61
2021/10/24 04:19:32;;;;;;;313.85;104.25;;;24.30;38.80;;;;;;6141251;28;90467;-66
2021/10/24 04:22:34;;;;;;;271.88;90.55;;;24.30;40.00;;;;;;6133907;28;88321;-65
2021/10/24 04:25:35;;;;;;;238.82;81.78;;;24.20;42.40;;;;;;6155342;28;85574;-63
2021/10/24 04:28:36;;;;;;;214.77;76.43;;;24.00;42.90;;;;;;6135860;28;85825;-64
2021/10/24 04:31:37;;;;;;;194.32;67.80;;;23.90;43.60;;;;;;6134841;28;84051;-64
2021/10/24 04:34:38;;;;;;;173.05;60.13;;;23.90;44.20;;;;;;6153355;28;83521;-65
2021/10/24 04:37:38;;;;;;;152.98;54.35;;;23.80;44.90;;;;;;6134159;28;85755;-64
2021/10/24 04:40:39;;;;;;;142.25;47.80;;;23.80;45.60;;;;;;6135437;28;85722;-65
2021/10/24 04:43:42;;;;;;;137.48;47.83;;;23.70;46.10;;;;;;6143103;28;84917;-65
2021/10/24 04:46:45;;;;;;;130.50;44.67;;;23.70;46.20;;;;;;6134649;28;85796;-65
2021/10/24 04:49:46;;;;;;;114.85;43.40;;;23.70;46.60;;;;;;6142110;28;85633;-65
2021/10/24 04:52:47;;;;;;;103.72;37.83;;;23.70;46.60;;;;;;6139925;28;85551;-66
2021/10/24 04:55:47;;;;;;;100.28;35.25;;;23.80;46.50;;;;;;6137075;28;89865;-66
2021/10/24 04:58:48;;;;;;;93.32;34.25;;;23.70;47.20;;;;;;6139763;28;85983;-66
2021/10/24 05:01:48;;;;;;;86.28;32.83;;;23.70;48.00;;;;;;6139784;28;84472;-65
2021/10/24 05:04:51;;;;;;;91.55;30.77;;;23.70;48.80;;;;;;6147625;28;85424;-66
2021/10/24 05:07:51;;;;;;;77.45;28.23;;;23.70;49.10;;;;;;6140964;28;85818;-65
2021/10/24 05:10:52;;;;;;;74.95;28.08;;;23.70;49.60;;;;;;6139315;28;86026;-69
2021/10/24 05:13:53;;;;;;;77.35;26.60;;;23.70;49.80;;;;;;6158577;28;83957;-67
2021/10/24 05:16:53;;;;;;;65.90;25.10;;;23.60;49.50;;;;;;6158351;28;83197;-65
2021/10/24 05:19:54;;;;;;;69.05;27.02;;;23.60;49.90;;;;;;6157385;28;83103;-65
2021/10/24 05:22:56;;;;;;;75.15;26.40;;;23.60;50.20;;;;;;6139704;28;84401;-65
2021/10/24 05:25:58;;;;;;;59.70;22.48;;;23.60;50.40;;;;;;6140880;28;85239;-65
2021/10/24 05:28:59;;;;;;;58.63;22.40;;;23.60;50.70;;;;;;6139732;28;85482;-65
2021/10/24 05:32:00;;;;;;;56.35;21.85;;;23.50;50.80;;;;;;6139542;28;85215;-65
2021/10/24 05:35:01;;;;;;;54.53;20.15;;;23.50;50.40;;;;;;6139881;28;85490;-66
2021/10/24 05:38:03;;;;;;;47.92;19.05;;;23.50;50.70;;;;;;6136796;28;85688;-66
2021/10/24 05:41:08;;;;;;;45.95;19.35;;;23.50;50.70;;;;;;6137213;28;85703;-67
2021/10/24 05:44:09;;;;;;;42.08;18.10;;;23.50;50.60;;;;;;6138828;28;85788;-66
2021/10/24 05:47:10;;;;;;;41.97;17.00;;;23.50;50.50;;;;;;6139996;28;85755;-67
2021/10/24 05:50:11;;;;;;;44.55;18.17;;;23.50;50.60;;;;;;6138558;28;85660;-66
2021/10/24 05:53:11;;;;;;;40.28;16.08;;;23.50;50.50;;;;;;6138165;28;85912;-67
2021/10/24 05:56:12;;;;;;;44.08;17.23;;;23.50;50.20;;;;;;6158835;28;83516;-66
2021/10/24 05:59:16;;;;;;;43.28;16.25;;;23.50;50.30;;;;;;6139450;28;85481;-66
2021/10/24 06:02:43;;;;;;;36.50;15.10;;;23.50;50.40;;;;;;6151167;28;84155;-65
2021/10/24 06:06:02;;;;;;;37.53;16.00;;;23.50;50.60;;;;;;6155925;28;83086;-68
2021/10/24 06:09:03;;;;;;;39.20;15.95;;;23.50;50.60;;;;;;6139654;28;86246;-66
2021/10/24 06:12:04;;;;;;;30.42;13.15;;;23.50;50.50;;;;;;6145300;28;85446;-65
2021/10/24 06:15:04;;;;;;;35.22;14.13;;;23.50;50.60;;;;;;6151347;28;83032;-65
2021/10/24 06:18:05;;;;;;;36.08;15.77;;;23.50;50.60;;;;;;6136078;28;84266;-65
2021/10/24 06:21:05;;;;;;;35.20;13.82;;;23.50;50.40;;;;;;6139256;28;84291;-66
2021/10/24 06:24:06;;;;;;;33.47;13.68;;;23.50;50.40;;;;;;6138602;28;83106;-65
2021/10/24 06:27:07;;;;;;;29.73;11.90;;;23.50;50.60;;;;;;6158472;28;84531;-68
2021/10/24 06:30:08;;;;;;;30.65;13.57;;;23.50;51.80;;;;;;6135600;28;85896;-65
2021/10/24 06:33:41;;;;;;;31.60;12.27;;;23.50;50.90;;;;;;6108648;28;83785;-65
2021/10/24 06:37:07;;;;;;;35.90;13.05;;;23.40;50.80;;;;;;6124360;28;83400;-62
2021/10/24 06:40:12;;;;;;;31.45;12.75;;;23.50;50.80;;;;;;6139413;28;85838;-62
2021/10/24 06:43:15;;;;;;;29.73;11.40;;;23.40;51.40;;;;;;6137212;28;83770;-62
2021/10/24 06:46:39;;;;;;;36.45;12.43;;;23.40;51.20;;;;;;6151787;28;87992;-66
2021/10/24 06:49:58;;;;;;;26.80;11.00;;;23.40;51.00;;;;;;6153370;28;83575;-68
2021/10/24 06:53:18;;;;;;;26.63;10.73;;;23.40;51.10;;;;;;6150264;28;83694;-65
2021/10/24 06:56:37;;;;;;;30.48;10.48;;;23.50;51.50;;;;;;6151911;28;83160;-65
2021/10/24 07:00:03;;;;;;;25.92;10.18;;;23.50;52.00;;;;;;6124135;28;83117;-66
2021/10/24 07:03:05;;;;;;;26.02;10.43;;;23.50;52.40;;;;;;6155317;28;85731;-66
2021/10/24 07:06:31;;;;;;;19.88;9.48;;;23.50;52.20;;;;;;6121485;28;82805;-68
2021/10/24 07:09:55;;;;;;;20.23;9.68;;;23.50;52.40;;;;;;6162373;28;82294;-67
2021/10/24 07:12:56;;;;;;;21.42;9.45;;;23.60;52.20;;;;;;6141884;28;81695;-66
2021/10/24 07:15:57;;;;;;;22.75;10.50;;;23.60;51.90;;;;;;6142042;28;82946;-67
2021/10/24 07:18:58;;;;;;;19.42;8.27;;;23.70;51.60;;;;;;6136770;28;83422;-66
2021/10/24 07:21:58;;;;;;;18.23;8.35;;;23.80;51.50;;;;;;6140662;28;85948;-64
2021/10/24 07:25:22;;;;;;;20.00;9.02;;;23.80;51.00;;;;;;6144230;28;80608;-68
2021/10/24 07:28:23;;;;;;;18.95;8.35;;;23.90;50.70;;;;;;6132959;28;87827;-67
2021/10/24 07:31:24;;;;;;;23.70;10.23;;;23.90;48.50;;;;;;6143113;28;83619;-63
2021/10/24 07:34:45;;;;;;;19.58;8.80;;;23.80;47.00;;;;;;6154686;28;82879;-67
2021/10/24 07:37:46;;;;;;;22.08;9.55;;;23.70;47.90;;;;;;6140307;28;85964;-64
2021/10/24 07:40:48;;;;;;;16.85;7.63;;;23.60;48.40;;;;;;6144102;28;82054;-65
2021/10/24 07:43:52;;;;;;;22.95;8.35;;;23.60;49.20;;;;;;6126197;28;83509;-66
2021/10/24 07:46:54;;;;;;;17.25;7.28;;;23.60;49.00;;;;;;6140489;28;82553;-66
2021/10/24 07:49:56;;;;;;;17.65;8.30;;;23.60;49.20;;;;;;6137276;28;82045;-67
2021/10/24 07:52:57;;;;;;;16.92;8.05;;;23.70;49.60;;;;;;6132975;28;85526;-72
2021/10/24 07:56:07;;;;;;;20.30;7.93;;;23.60;49.00;;;;;;6133011;28;81879;-69
2021/10/24 07:59:26;;;;;;;17.13;7.60;;;23.70;49.10;;;;;;6149711;28;80646;-68
2021/10/24 08:02:27;;;;;;;17.00;7.55;;;23.80;49.40;;;;;;6141002;28;83263;-68
2021/10/24 08:05:30;;;;;;;20.33;7.63;;;23.70;50.00;;;;;;6137885;28;81816;-68
2021/10/24 08:08:31;;;;;;;18.63;7.65;;;23.70;51.20;;;;;;6130146;28;82816;-69
2021/10/24 08:11:32;;;;;;;21.90;8.13;;;23.80;51.80;;;;;;6154476;28;83542;-67
2021/10/24 08:14:32;;;;;;;16.92;8.00;;;23.90;52.60;;;;;;6140011;28;82816;-67
2021/10/24 08:17:33;;;;;;;13.35;7.15;;;23.90;51.60;;;;;;6138340;28;83467;-68
2021/10/24 08:20:54;;;;;;;12.85;6.40;;;24.00;51.40;;;;;;6155218;28;80324;-68
2021/10/24 08:23:55;;;;;;;15.85;7.35;;;24.10;51.10;;;;;;6150536;28;81715;-69
2021/10/24 08:26:56;;;;;;;14.60;7.45;;;24.10;50.90;;;;;;6135749;28;82027;-70
2021/10/24 08:29:57;;;;;;;15.30;6.72;;;24.20;50.60;;;;;;6147883;28;82766;-69
2021/10/24 08:33:17;;;;;;;12.35;6.35;;;24.20;50.30;;;;;;6156816;28;83480;-69
2021/10/24 08:36:18;;;;;;;22.48;6.80;;;24.30;50.20;;;;;;6156014;28;80152;-69
2021/10/24 08:39:19;;;;;;;15.10;7.20;;;24.40;50.20;;;;;;6163160;28;82177;-67
2021/10/24 08:42:22;;;;;;;13.00;6.28;;;24.40;50.00;;;;;;6160112;28;80894;-67
2021/10/24 08:45:23;;;;;;;14.57;6.88;;;24.50;50.00;;;;;;6153475;28;80459;-68
2021/10/24 08:48:24;;;;;;;15.07;7.05;;;24.60;49.90;;;;;;6139083;28;80335;-68
2021/10/24 08:51:24;;;;;;;12.65;6.78;;;24.60;50.00;;;;;;6141599;28;83643;-68
2021/10/24 08:54:27;;;;;;;14.40;6.20;;;24.60;50.00;;;;;;6157329;28;80453;-68
2021/10/24 08:57:28;;;;;;;10.63;5.82;;;24.70;50.10;;;;;;6155958;28;80904;-68
2021/10/24 09:00:28;;;;;;;11.90;6.03;;;24.70;50.00;;;;;;6162950;28;81932;-67
2021/10/24 09:03:29;;;;;;;12.20;6.28;;;24.80;48.30;;;;;;6158767;28;81316;-68
2021/10/24 09:06:29;;;;;;;13.15;6.10;;;24.90;47.00;;;;;;6154695;28;80469;-67
2021/10/24 09:09:31;;;;;;;15.35;6.45;;;25.00;46.30;;;;;;6158425;28;81447;-68
2021/10/24 09:12:32;;;;;;;12.48;5.30;;;25.10;46.20;;;;;;6138768;28;80316;-68
2021/10/24 09:15:32;;;;;;;13.82;6.05;;;25.10;44.80;;;;;;6143301;28;86909;-71
2021/10/24 09:18:33;;;;;;;11.32;5.88;;;25.20;44.80;;;;;;6157910;28;80394;-71
2021/10/24 09:21:34;;;;;;;16.95;6.68;;;25.30;45.20;;;;;;6144427;28;83244;-71
2021/10/24 09:24:34;;;;;;;13.15;5.95;;;25.40;44.10;;;;;;6156775;28;80652;-72
2021/10/24 09:27:35;;;;;;;12.52;5.85;;;25.40;43.80;;;;;;6152242;28;81409;-66
2021/10/24 09:30:36;;;;;;;14.25;6.07;;;25.50;43.50;;;;;;6160935;28;80827;-66
2021/10/24 09:33:36;;;;;;;9.95;5.82;;;25.50;43.20;;;;;;6160850;28;80691;-73
2021/10/24 09:36:37;;;;;;;13.48;5.85;;;25.50;40.80;;;;;;6154313;28;80529;-71
2021/10/24 09:40:04;;;;;;;13.95;5.65;;;25.50;41.00;;;;;;6154123;28;81471;-70
2021/10/24 09:43:04;;;;;;;13.43;6.90;;;25.50;40.40;;;;;;6156352;28;80449;-71
2021/10/24 09:46:05;;;;;;;14.02;6.03;;;25.50;40.40;;;;;;6159698;28;80662;-71
2021/10/24 09:49:06;;;;;;;12.75;5.72;;;25.50;39.90;;;;;;6140625;28;81544;-71
2021/10/24 09:52:06;;;;;;;32.13;6.10;;;25.60;39.60;;;;;;6153950;28;80077;-72
2021/10/24 09:55:07;;;;;;;14.25;6.47;;;25.60;39.60;;;;;;6141450;28;80472;-73
2021/10/24 09:58:07;;;;;;;10.82;6.00;;;25.60;39.10;;;;;;6161461;28;81842;-74
2021/10/24 10:01:08;;;;;;;10.05;5.20;;;25.70;39.00;;;;;;6136116;28;81957;-72
2021/10/24 10:04:08;;;;;;;11.18;5.22;;;25.70;38.70;;;;;;6136164;28;83532;-74
2021/10/24 10:07:09;;;;;;;11.18;4.80;;;25.80;38.20;;;;;;6159478;28;80712;-73
2021/10/24 10:10:09;;;;;;;21.70;5.35;;;25.80;38.50;;;;;;6158078;28;80304;-72
2021/10/24 10:13:10;;;;;;;14.65;5.75;;;25.90;39.20;;;;;;6155981;28;80477;-70
2021/10/24 10:16:11;;;;;;;12.68;4.78;;;25.80;39.10;;;;;;6150378;28;81858;-70
2021/10/24 10:19:11;;;;;;;11.45;4.93;;;25.90;38.90;;;;;;6153426;28;82239;-73
2021/10/24 10:22:12;;;;;;;11.18;5.40;;;25.90;39.00;;;;;;6150803;28;80303;-71
2021/10/24 10:25:13;;;;;;;12.85;4.70;;;25.90;38.90;;;;;;6160026;28;80386;-71
2021/10/24 10:28:13;;;;;;;10.50;4.57;;;25.80;38.30;;;;;;6146881;28;82320;-69
2021/10/24 10:31:14;;;;;;;12.07;5.35;;;25.80;38.30;;;;;;6158366;28;80409;-72
2021/10/24 10:34:15;;;;;;;9.23;5.00;;;25.80;38.20;;;;;;6137914;28;81452;-76
2021/10/24 10:37:15;;;;;;;9.95;4.25;;;25.90;37.90;;;;;;6150597;28;82408;-73
2021/10/24 10:40:16;;;;;;;10.88;4.70;;;25.90;38.20;;;;;;6163610;28;81150;-78
2021/10/24 10:43:16;;;;;;;9.38;4.40;;;26.00;37.70;;;;;;6157612;28;80432;-69
2021/10/24 10:46:17;;;;;;;11.98;4.80;;;25.90;37.80;;;;;;6151655;28;82016;-72
2021/10/24 10:49:17;;;;;;;13.05;4.85;;;25.90;38.00;;;;;;6153947;28;80480;-73
2021/10/24 10:52:18;;;;;;;8.18;4.10;;;26.00;38.30;;;;;;6140138;28;83318;-73
2021/10/24 10:55:19;;;;;;;11.35;4.30;;;26.00;38.90;;;;;;6147316;28;80988;-73
2021/10/24 10:58:19;;;;;;;8.63;4.45;;;25.90;38.30;;;;;;6150766;28;81788;-69
2021/10/24 11:01:20;;;;;;;10.30;4.03;;;25.90;38.00;;;;;;6145548;28;81179;-72
2021/10/24 11:04:21;;;;;;;11.10;3.85;;;25.80;38.10;;;;;;6154792;28;81743;-70
2021/10/24 11:07:21;;;;;;;12.00;4.32;;;25.70;37.70;;;;;;6153181;28;81533;-72
2021/10/24 11:10:22;;;;;;;9.73;3.75;;;25.70;37.90;;;;;;6135646;28;83390;-71
2021/10/24 11:13:22;;;;;;;11.23;4.70;;;25.70;37.70;;;;;;6133792;28;87770;-70
2021/10/24 11:16:23;;;;;;;11.20;4.03;;;25.70;38.00;;;;;;6137540;28;84964;-71
2021/10/24 11:19:23;;;;;;;8.68;4.38;;;25.70;37.90;;;;;;6155202;28;80926;-71
2021/10/24 11:22:24;;;;;;;11.00;4.15;;;25.80;38.50;;;;;;6134549;28;84004;-69
2021/10/24 11:25:24;;;;;;;9.90;4.05;;;25.80;38.40;;;;;;6154922;28;80932;-69
2021/10/24 11:28:25;;;;;;;8.85;4.60;;;25.90;37.50;;;;;;6156037;28;81160;-69
2021/10/24 11:31:27;;;;;;;5.82;3.25;;;25.90;37.20;;;;;;6138889;28;80745;-71
2021/10/24 11:34:28;;;;;;;9.15;4.03;;;25.70;36.80;;;;;;6155242;28;80449;-70
2021/10/24 11:37:28;;;;;;;8.48;3.67;;;25.70;36.90;;;;;;6138090;28;83257;-70
2021/10/24 11:40:29;;;;;;;9.32;4.18;;;25.60;37.10;;;;;;6133524;28;83285;-70
2021/10/24 11:43:32;;;;;;;8.65;3.67;;;25.60;36.50;;;;;;6155808;28;80376;-73
2021/10/24 11:46:32;;;;;;;10.60;3.55;;;25.50;36.60;;;;;;6137872;28;83398;-71
2021/10/24 11:49:33;;;;;;;10.18;4.10;;;25.40;36.30;;;;;;6155992;28;80536;-70
2021/10/24 11:52:33;;;;;;;12.30;3.60;;;25.40;36.50;;;;;;6150030;28;80625;-70
2021/10/24 11:55:34;;;;;;;10.60;3.58;;;25.30;36.60;;;;;;6154310;28;80544;-71
2021/10/24 12:01:38;;;;;;;9.38;3.97;;;25.30;36.90;;;;;;6155064;28;80321;-69
2021/10/24 12:04:39;;;;;;;6.72;3.17;;;25.20;37.00;;;;;;6158096;28;80902;-68
2021/10/24 12:07:39;;;;;;;7.65;3.38;;;25.20;37.00;;;;;;6155384;28;81705;-68
2021/10/24 12:10:40;;;;;;;7.22;3.22;;;25.20;37.10;;;;;;6164621;28;80696;-69
2021/10/24 12:13:41;;;;;;;7.22;2.95;;;25.20;37.00;;;;;;6164581;28;80429;-69
2021/10/24 12:16:42;;;;;;;7.85;3.10;;;25.20;37.20;;;;;;6164557;28;80312;-69
2021/10/24 12:19:42;;;;;;;7.20;3.03;;;25.10;37.20;;;;;;6164567;28;80574;-69
2021/10/24 12:22:43;;;;;;;8.10;3.13;;;25.20;37.70;;;;;;6129539;28;82420;-69
2021/10/24 12:25:43;;;;;;;14.80;3.88;;;25.10;37.70;;;;;;6159631;28;81358;-68
2021/10/24 12:28:45;;;;;;;7.85;3.47;;;25.10;38.20;;;;;;6143201;28;81570;-69
2021/10/24 12:31:46;;;;;;;7.25;3.20;;;25.10;38.60;;;;;;6142430;28;82871;-69
2021/10/24 12:34:46;;;;;;;10.85;3.35;;;25.10;39.00;;;;;;6164026;28;83358;-68
2021/10/24 12:37:47;;;;;;;12.48;4.43;;;25.10;38.80;;;;;;6167030;28;82753;-68
2021/10/24 12:40:47;;;;;;;353.95;118.88;;;25.10;38.80;;;;;;6167555;28;80905;-68
2021/10/24 12:43:48;;;;;;;380.88;125.20;;;25.10;38.60;;;;;;6159028;28;85778;-69
2021/10/24 12:46:48;;;;;;;353.02;117.45;;;25.10;38.60;;;;;;6158646;28;85858;-69
2021/10/24 12:49:49;;;;;;;316.30;106.32;;;25.10;38.40;;;;;;6160629;28;85504;-68
2021/10/24 12:52:49;;;;;;;240.15;82.05;;;25.10;38.40;;;;;;6140746;28;86721;-67
2021/10/24 12:55:50;;;;;;;202.85;67.28;;;25.10;38.60;;;;;;6161067;28;86121;-69
2021/10/24 12:58:51;;;;;;;161.15;56.95;;;25.10;39.20;;;;;;6158729;28;84157;-71
2021/10/24 13:01:51;;;;;;;130.55;47.50;;;25.30;38.70;;;;;;6144503;28;83187;-71
2021/10/24 13:04:53;;;;;;;130.45;44.47;;;25.30;38.40;;;;;;6138690;28;86183;-70
2021/10/24 13:07:53;;;;;;;111.43;36.92;;;25.30;37.90;;;;;;6161109;28;83086;-70
2021/10/24 13:10:54;;;;;;;103.60;35.95;;;25.40;37.60;;;;;;6155699;28;83436;-68
2021/10/24 13:13:54;;;;;;;86.55;32.10;;;25.50;37.80;;;;;;6162773;28;83198;-68
2021/10/24 13:16:55;;;;;;;89.30;29.83;;;25.50;38.00;;;;;;6143815;28;83206;-69
2021/10/24 13:19:57;;;;;;;77.50;28.27;;;25.60;38.30;;;;;;6158852;28;83097;-71
2021/10/24 13:22:58;;;;;;;75.18;25.40;;;25.70;37.90;;;;;;6159663;28;89842;-69
2021/10/24 13:25:58;;;;;;;68.35;24.25;;;25.70;37.50;;;;;;6157943;28;83608;-66
2021/10/24 13:28:59;;;;;;;60.92;21.23;;;25.80;37.40;;;;;;6157263;28;83123;-70
2021/10/24 13:31:59;;;;;;;49.75;18.55;;;25.80;37.10;;;;;;6157703;28;83540;-70
2021/10/24 13:35:01;;;;;;;53.22;18.35;;;25.80;36.70;;;;;;6154448;28;83427;-70
2021/10/24 13:38:01;;;;;;;50.20;18.33;;;25.90;36.90;;;;;;6157577;28;83447;-70
2021/10/24 13:41:02;;;;;;;42.63;15.75;;;25.90;36.70;;;;;;6155661;28;83568;-68
2021/10/24 13:44:02;;;;;;;32.58;13.82;;;25.90;36.70;;;;;;6155774;28;84366;-68
2021/10/24 13:47:03;;;;;;;35.00;13.18;;;25.90;36.30;;;;;;6155003;28;83569;-69
2021/10/24 13:50:03;;;;;;;31.00;11.93;;;26.00;36.30;;;;;;6157638;28;84169;-69
2021/10/24 13:53:04;;;;;;;31.40;10.73;;;26.00;35.60;;;;;;6157661;28;83576;-69
2021/10/24 13:56:04;;;;;;;27.75;10.23;;;25.90;35.40;;;;;;6158122;28;84196;-70
2021/10/24 13:59:05;;;;;;;32.75;10.63;;;25.90;35.40;;;;;;6157492;28;83184;-69
2021/10/24 14:02:06;;;;;;;23.60;8.77;;;25.90;35.50;;;;;;6157172;28;83176;-70
2021/10/24 14:05:06;;;;;;;32.40;9.10;;;26.00;35.30;;;;;;6159829;28;82930;-71
2021/10/24 14:08:07;;;;;;;18.15;7.45;;;25.90;35.40;;;;;;6158905;28;80713;-70
2021/10/24 14:11:08;;;;;;;17.60;7.10;;;25.90;35.30;;;;;;6142839;28;83350;-68
2021/10/24 14:14:09;;;;;;;21.60;7.32;;;25.90;35.00;;;;;;6160710;28;82183;-68
2021/10/24 14:17:10;;;;;;;15.43;6.32;;;25.90;35.40;;;;;;6159526;28;80425;-70
2021/10/24 14:20:10;;;;;;;15.57;6.53;;;25.90;34.80;;;;;;6159997;28;81543;-73
2021/10/24 14:23:11;;;;;;;14.32;6.18;;;25.90;34.70;;;;;;6160107;28;80661;-70
2021/10/24 14:26:11;;;;;;;12.23;5.63;;;25.90;34.60;;;;;;6162146;28;81709;-70
2021/10/24 14:29:12;;;;;;;13.30;5.88;;;25.90;34.40;;;;;;6158445;28;80645;-69
2021/10/24 14:32:13;;;;;;;17.45;5.15;;;25.90;34.40;;;;;;6153412;28;87311;-70
2021/10/24 14:35:13;;;;;;;8.48;4.75;;;26.20;33.90;;;;;;6160593;28;80771;-71
2021/10/24 14:38:15;;;;;;;11.73;5.30;;;26.50;32.80;;;;;;6160523;28;80174;-70
2021/10/24 14:41:17;;;;;;;11.32;4.97;;;26.70;32.30;;;;;;6158379;28;80222;-66
2021/10/24 14:44:18;;;;;;;13.95;4.68;;;26.90;31.90;;;;;;6158888;28;80363;-66
2021/10/24 14:47:18;;;;;;;11.35;4.65;;;27.00;31.50;;;;;;6159232;28;82075;-69
2021/10/24 14:50:19;;;;;;;8.95;4.07;;;26.80;31.60;;;;;;6160373;28;81438;-70
2021/10/24 14:53:20;;;;;;;8.23;4.13;;;26.60;31.80;;;;;;6159578;28;80923;-69
2021/10/24 14:56:20;;;;;;;9.25;3.70;;;26.40;32.20;;;;;;6156664;28;82231;-71
2021/10/24 14:59:21;;;;;;;8.15;4.03;;;26.20;32.60;;;;;;6154794;28;80462;-70
2021/10/24 15:02:21;;;;;;;9.00;4.10;;;26.10;32.70;;;;;;6155161;28;81029;-69
2021/10/24 15:05:22;;;;;;;7.55;3.88;;;26.00;32.80;;;;;;6151205;28;81372;-69
2021/10/24 15:08:22;;;;;;;13.60;3.55;;;25.90;33.00;;;;;;6156066;28;81566;-73
2021/10/24 15:11:23;;;;;;;9.02;3.72;;;25.80;33.50;;;;;;6155668;28;81009;-72
2021/10/24 15:14:27;;;;;;;7.72;4.03;;;25.70;33.60;;;;;;6157399;28;81524;-68
2021/10/24 15:17:29;;;;;;;7.75;3.33;;;25.60;33.80;;;;;;6153302;28;81327;-67
2021/10/24 15:23:50;;;;;;;7.35;3.50;;;25.40;34.40;;;;;;6157522;28;81339;-68
2021/10/24 15:26:50;;;;;;;9.00;3.50;;;25.30;34.40;;;;;;6159542;28;81580;-68
2021/10/24 15:29:52;;;;;;;13.23;4.40;;;25.30;34.70;;;;;;6158729;28;82110;-66
2021/10/24 15:32:52;;;;;;;8.05;3.42;;;25.20;34.60;;;;;;6157719;28;80607;-70
2021/10/24 15:35:53;;;;;;;10.75;3.47;;;25.20;34.70;;;;;;6159016;28;81806;-70
2021/10/24 15:38:53;;;;;;;8.43;3.17;;;25.10;34.70;;;;;;6159863;28;80486;-69